sensor_id;sensor_type;location;lat;lon;timestamp;pressure;altitude;pressure_sealevel;temperature;humidity
7180;BME280;3631;42.152;24.756;2023-11-19T00:00:18;86338.84;;;-144.30;62.44
7180;BME280;3631;42.152;24.756;2023-11-19T00:02:45;86438.28;;;-144.30;62.73
7180;BME280;3631;42.152;24.756;2023-11-19T00:05:13;86438.28;;;-144.30;62.85
7180;BME280;3631;42.152;24.756;2023-11-19T00:07:41;86311.00;;;-144.30;62.65
7180;BME280;3631;42.152;24.756;2023-11-19T00:10:09;86340.84;;;-144.30;63.17
7180;BME280;3631;42.152;24.756;2023-11-19T00:12:37;86265.28;;;-144.30;63.08
7180;BME280;3631;42.152;24.756;2023-11-19T00:15:06;86326.91;;;-144.30;63.22
7180;BME280;3631;42.152;24.756;2023-11-19T00:17:37;86344.81;;;-144.30;63.05
7180;BME280;3631;42.152;24.756;2023-11-19T00:20:06;86314.97;;;-144.30;63.41
7180;BME280;3631;42.152;24.756;2023-11-19T00:22:34;86332.88;;;-144.30;63.63
7180;BME280;3631;42.152;24.756;2023-11-19T00:25:01;86269.25;;;-144.30;63.35
7180;BME280;3631;42.152;24.756;2023-11-19T00:27:29;86402.47;;;-144.30;63.89
7180;BME280;3631;42.152;24.756;2023-11-19T00:29:56;86350.78;;;-144.30;63.72
7180;BME280;3631;42.152;24.756;2023-11-19T00:32:23;86358.72;;;-144.30;63.70
7180;BME280;3631;42.152;24.756;2023-11-19T00:34:50;86318.97;;;-144.30;63.89
7180;BME280;3631;42.152;24.756;2023-11-19T00:37:17;86336.84;;;-144.30;63.63
7180;BME280;3631;42.152;24.756;2023-11-19T00:39:47;86340.84;;;-144.30;63.74
7180;BME280;3631;42.152;24.756;2023-11-19T00:42:16;86350.78;;;-144.30;63.73
7180;BME280;3631;42.152;24.756;2023-11-19T00:44:43;86334.88;;;-144.30;63.80
7180;BME280;3631;42.152;24.756;2023-11-19T00:47:11;86362.72;;;-144.30;63.33
7180;BME280;3631;42.152;24.756;2023-11-19T00:49:38;86283.16;;;-144.30;63.83
7180;BME280;3631;42.152;24.756;2023-11-19T00:52:05;86313.00;;;-144.30;63.52
7180;BME280;3631;42.152;24.756;2023-11-19T00:54:32;86356.75;;;-144.30;64.04
7180;BME280;3631;42.152;24.756;2023-11-19T00:56:59;86346.81;;;-144.30;64.27
7180;BME280;3631;42.152;24.756;2023-11-19T00:59:28;86301.06;;;-144.30;63.72
7180;BME280;3631;42.152;24.756;2023-11-19T01:01:55;86271.25;;;-144.30;63.82
7180;BME280;3631;42.152;24.756;2023-11-19T01:04:22;86360.72;;;-144.30;63.64
7180;BME280;3631;42.152;24.756;2023-11-19T01:06:49;86362.72;;;-144.30;64.10
7180;BME280;3631;42.152;24.756;2023-11-19T01:09:16;86350.78;;;-144.30;64.12
7180;BME280;3631;42.152;24.756;2023-11-19T01:11:43;86322.94;;;-144.30;64.11
7180;BME280;3631;42.152;24.756;2023-11-19T01:14:10;86320.94;;;-144.30;64.57
7180;BME280;3631;42.152;24.756;2023-11-19T01:16:38;86366.69;;;-144.30;64.73
7180;BME280;3631;42.152;24.756;2023-11-19T01:19:05;86354.75;;;-144.30;64.65
7180;BME280;3631;42.152;24.756;2023-11-19T01:21:33;86318.97;;;-144.30;64.12
7180;BME280;3631;42.152;24.756;2023-11-19T01:24:00;86354.75;;;-144.30;64.89
7180;BME280;3631;42.152;24.756;2023-11-19T01:26:28;86366.69;;;-144.30;64.43
7180;BME280;3631;42.152;24.756;2023-11-19T01:28:55;86370.66;;;-144.30;64.86
7180;BME280;3631;42.152;24.756;2023-11-19T01:31:22;86314.97;;;-144.30;64.59
7180;BME280;3631;42.152;24.756;2023-11-19T01:33:50;86295.09;;;-144.30;64.90
7180;BME280;3631;42.152;24.756;2023-11-19T01:36:17;86354.75;;;-144.30;64.64
7180;BME280;3631;42.152;24.756;2023-11-19T01:38:44;86356.75;;;-144.30;64.60
7180;BME280;3631;42.152;24.756;2023-11-19T01:41:11;86378.63;;;-144.30;64.72
7180;BME280;3631;42.152;24.756;2023-11-19T01:43:39;86346.81;;;-144.30;64.35
7180;BME280;3631;42.152;24.756;2023-11-19T01:46:08;86330.88;;;-144.30;65.38
7180;BME280;3631;42.152;24.756;2023-11-19T01:48:39;86326.91;;;-144.30;64.86
7180;BME280;3631;42.152;24.756;2023-11-19T01:51:09;86334.88;;;-144.30;65.47
7180;BME280;3631;42.152;24.756;2023-11-19T01:53:37;86318.97;;;-144.30;65.39
7180;BME280;3631;42.152;24.756;2023-11-19T01:56:07;86390.53;;;-144.30;65.43
7180;BME280;3631;42.152;24.756;2023-11-19T01:58:35;86316.97;;;-144.30;65.14
7180;BME280;3631;42.152;24.756;2023-11-19T02:01:02;86328.91;;;-144.30;64.78
7180;BME280;3631;42.152;24.756;2023-11-19T02:03:31;86313.00;;;-144.30;65.10
7180;BME280;3631;42.152;24.756;2023-11-19T02:05:58;86334.88;;;-144.30;65.35
7180;BME280;3631;42.152;24.756;2023-11-19T02:08:27;86350.78;;;-144.30;65.54
7180;BME280;3631;42.152;24.756;2023-11-19T02:10:53;86352.75;;;-144.30;65.08
7180;BME280;3631;42.152;24.756;2023-11-19T02:13:22;86340.84;;;-144.30;65.43
7180;BME280;3631;42.152;24.756;2023-11-19T02:15:50;86332.88;;;-144.30;65.38
7180;BME280;3631;42.152;24.756;2023-11-19T02:18:21;86342.81;;;-144.30;65.34
7180;BME280;3631;42.152;24.756;2023-11-19T02:20:48;86338.84;;;-144.30;65.29
7180;BME280;3631;42.152;24.756;2023-11-19T02:23:16;86320.94;;;-144.30;65.37
7180;BME280;3631;42.152;24.756;2023-11-19T02:25:49;86326.91;;;-144.30;65.05
7180;BME280;3631;42.152;24.756;2023-11-19T02:28:21;86340.84;;;-144.30;65.31
7180;BME280;3631;42.152;24.756;2023-11-19T02:30:48;86338.84;;;-144.30;64.78
7180;BME280;3631;42.152;24.756;2023-11-19T02:33:15;86336.84;;;-144.30;64.96
7180;BME280;3631;42.152;24.756;2023-11-19T02:35:42;86354.75;;;-144.30;64.96
7180;BME280;3631;42.152;24.756;2023-11-19T02:38:09;86354.75;;;-144.30;65.44
7180;BME280;3631;42.152;24.756;2023-11-19T02:40:36;86338.84;;;-144.30;65.20
7180;BME280;3631;42.152;24.756;2023-11-19T02:43:03;86362.72;;;-144.30;64.99
7180;BME280;3631;42.152;24.756;2023-11-19T02:45:32;86338.84;;;-144.30;64.97
7180;BME280;3631;42.152;24.756;2023-11-19T02:47:59;86336.84;;;-144.30;64.12
7180;BME280;3631;42.152;24.756;2023-11-19T02:50:27;86360.72;;;-144.30;64.95
7180;BME280;3631;42.152;24.756;2023-11-19T02:52:55;86378.63;;;-144.30;64.21
7180;BME280;3631;42.152;24.756;2023-11-19T02:55:23;86342.81;;;-144.30;64.67
7180;BME280;3631;42.152;24.756;2023-11-19T02:57:51;86311.00;;;-144.30;64.38
7180;BME280;3631;42.152;24.756;2023-11-19T03:00:19;86370.66;;;-144.30;64.67
7180;BME280;3631;42.152;24.756;2023-11-19T03:02:51;86318.97;;;-144.30;64.73
7180;BME280;3631;42.152;24.756;2023-11-19T03:05:25;86366.69;;;-144.30;64.06
7180;BME280;3631;42.152;24.756;2023-11-19T03:07:55;86330.88;;;-144.30;64.23
7180;BME280;3631;42.152;24.756;2023-11-19T03:10:23;86384.59;;;-144.30;64.43
7180;BME280;3631;42.152;24.756;2023-11-19T03:12:50;86330.88;;;-144.30;64.07
7180;BME280;3631;42.152;24.756;2023-11-19T03:15:17;86350.78;;;-144.30;64.20
7180;BME280;3631;42.152;24.756;2023-11-19T03:17:46;86350.78;;;-144.30;63.91
7180;BME280;3631;42.152;24.756;2023-11-19T03:20:15;86364.69;;;-144.30;64.09
7180;BME280;3631;42.152;24.756;2023-11-19T03:22:42;86195.69;;;-144.30;64.17
7180;BME280;3631;42.152;24.756;2023-11-19T03:25:09;86344.81;;;-144.30;64.06
7180;BME280;3631;42.152;24.756;2023-11-19T03:27:36;86354.75;;;-144.30;64.52
7180;BME280;3631;42.152;24.756;2023-11-19T03:30:05;86344.81;;;-144.30;64.49
7180;BME280;3631;42.152;24.756;2023-11-19T03:32:32;86400.50;;;-144.30;64.35
7180;BME280;3631;42.152;24.756;2023-11-19T03:35:01;86342.81;;;-144.30;64.84
7180;BME280;3631;42.152;24.756;2023-11-19T03:37:30;86334.88;;;-144.30;64.54
7180;BME280;3631;42.152;24.756;2023-11-19T03:39:58;86277.19;;;-144.30;64.67
7180;BME280;3631;42.152;24.756;2023-11-19T03:42:25;86370.66;;;-144.30;64.95
7180;BME280;3631;42.152;24.756;2023-11-19T03:44:52;86336.84;;;-144.30;64.96
7180;BME280;3631;42.152;24.756;2023-11-19T03:47:20;86295.09;;;-144.30;65.23
7180;BME280;3631;42.152;24.756;2023-11-19T03:49:48;86354.75;;;-144.30;65.23
7180;BME280;3631;42.152;24.756;2023-11-19T03:52:15;86368.66;;;-144.30;65.95
7180;BME280;3631;42.152;24.756;2023-11-19T03:54:44;86366.69;;;-144.30;66.14
7180;BME280;3631;42.152;24.756;2023-11-19T03:57:11;86370.66;;;-144.30;66.11
7180;BME280;3631;42.152;24.756;2023-11-19T03:59:39;86346.81;;;-144.30;65.88
7180;BME280;3631;42.152;24.756;2023-11-19T04:02:06;86849.91;;;-144.30;65.78
7180;BME280;3631;42.152;24.756;2023-11-19T04:04:33;86271.25;;;-144.30;65.32
7180;BME280;3631;42.152;24.756;2023-11-19T04:07:00;86362.72;;;-144.30;65.54
7180;BME280;3631;42.152;24.756;2023-11-19T04:09:28;86384.59;;;-144.30;65.49
7180;BME280;3631;42.152;24.756;2023-11-19T04:11:57;86360.72;;;-144.30;64.79
7180;BME280;3631;42.152;24.756;2023-11-19T04:14:24;86380.59;;;-144.30;64.43
7180;BME280;3631;42.152;24.756;2023-11-19T04:16:51;86370.66;;;-144.30;64.21
7180;BME280;3631;42.152;24.756;2023-11-19T04:19:18;86366.69;;;-144.30;64.50
7180;BME280;3631;42.152;24.756;2023-11-19T04:21:45;86378.63;;;-144.30;64.52
7180;BME280;3631;42.152;24.756;2023-11-19T04:24:12;86352.75;;;-144.30;64.50
7180;BME280;3631;42.152;24.756;2023-11-19T04:26:42;86382.59;;;-144.30;63.58
7180;BME280;3631;42.152;24.756;2023-11-19T04:29:13;86358.72;;;-144.30;63.92
7180;BME280;3631;42.152;24.756;2023-11-19T04:31:42;86390.53;;;-144.30;63.91
7180;BME280;3631;42.152;24.756;2023-11-19T04:34:09;86386.56;;;-144.30;63.76
7180;BME280;3631;42.152;24.756;2023-11-19T04:36:37;86384.59;;;-144.30;63.92
7180;BME280;3631;42.152;24.756;2023-11-19T04:39:04;86348.78;;;-144.30;63.68
7180;BME280;3631;42.152;24.756;2023-11-19T04:41:35;86374.63;;;-144.30;63.70
7180;BME280;3631;42.152;24.756;2023-11-19T04:44:02;86362.72;;;-144.30;64.23
7180;BME280;3631;42.152;24.756;2023-11-19T04:46:30;86360.72;;;-144.30;63.94
7180;BME280;3631;42.152;24.756;2023-11-19T04:48:57;86346.81;;;-144.30;64.29
7180;BME280;3631;42.152;24.756;2023-11-19T04:51:24;86374.63;;;-144.30;64.52
7180;BME280;3631;42.152;24.756;2023-11-19T04:53:51;86386.56;;;-144.30;65.19
7180;BME280;3631;42.152;24.756;2023-11-19T04:56:18;86362.72;;;-144.30;65.10
7180;BME280;3631;42.152;24.756;2023-11-19T04:58:47;86330.88;;;-144.30;65.83
7180;BME280;3631;42.152;24.756;2023-11-19T05:01:14;86390.53;;;-144.30;65.84
7180;BME280;3631;42.152;24.756;2023-11-19T05:03:44;86400.50;;;-144.30;66.06
7180;BME280;3631;42.152;24.756;2023-11-19T05:06:12;86394.53;;;-144.30;65.89
7180;BME280;3631;42.152;24.756;2023-11-19T05:08:39;86342.81;;;-144.30;66.27
7180;BME280;3631;42.152;24.756;2023-11-19T05:11:06;86406.44;;;-144.30;65.86
7180;BME280;3631;42.152;24.756;2023-11-19T05:13:32;86420.38;;;-144.30;65.82
7180;BME280;3631;42.152;24.756;2023-11-19T05:15:59;86416.41;;;-144.30;65.31
7180;BME280;3631;42.152;24.756;2023-11-19T05:18:26;86362.72;;;-144.30;65.76
7180;BME280;3631;42.152;24.756;2023-11-19T05:20:54;86352.75;;;-144.30;65.47
7180;BME280;3631;42.152;24.756;2023-11-19T05:23:21;86356.75;;;-144.30;64.98
7180;BME280;3631;42.152;24.756;2023-11-19T05:25:48;86376.63;;;-144.30;64.95
7180;BME280;3631;42.152;24.756;2023-11-19T05:28:15;86378.63;;;-144.30;64.86
7180;BME280;3631;42.152;24.756;2023-11-19T05:30:42;86406.44;;;-144.30;65.54
7180;BME280;3631;42.152;24.756;2023-11-19T05:33:09;86420.38;;;-144.30;65.24
7180;BME280;3631;42.152;24.756;2023-11-19T05:35:36;86410.44;;;-144.30;64.90
7180;BME280;3631;42.152;24.756;2023-11-19T05:38:04;86386.56;;;-144.30;65.25
7180;BME280;3631;42.152;24.756;2023-11-19T05:40:31;86313.00;;;-144.30;65.17
7180;BME280;3631;42.152;24.756;2023-11-19T05:42:58;86402.47;;;-144.30;65.46
7180;BME280;3631;42.152;24.756;2023-11-19T05:45:25;86398.50;;;-144.30;65.54
7180;BME280;3631;42.152;24.756;2023-11-19T05:47:52;86414.41;;;-144.30;65.45
7180;BME280;3631;42.152;24.756;2023-11-19T05:50:19;86386.56;;;-144.30;65.19
7180;BME280;3631;42.152;24.756;2023-11-19T05:52:46;86358.72;;;-144.30;65.25
7180;BME280;3631;42.152;24.756;2023-11-19T05:55:15;86374.63;;;-144.30;65.38
7180;BME280;3631;42.152;24.756;2023-11-19T05:57:42;86394.53;;;-144.30;64.93
7180;BME280;3631;42.152;24.756;2023-11-19T06:00:09;86362.72;;;-144.30;64.95
7180;BME280;3631;42.152;24.756;2023-11-19T06:02:38;86412.41;;;-144.30;65.00
7180;BME280;3631;42.152;24.756;2023-11-19T06:05:06;86384.59;;;-144.30;64.73
7180;BME280;3631;42.152;24.756;2023-11-19T06:07:33;86342.81;;;-144.30;64.82
7180;BME280;3631;42.152;24.756;2023-11-19T06:10:00;86374.63;;;-144.30;64.70
7180;BME280;3631;42.152;24.756;2023-11-19T06:12:29;86382.59;;;-144.30;64.38
7180;BME280;3631;42.152;24.756;2023-11-19T06:14:57;86382.59;;;-144.30;64.07
7180;BME280;3631;42.152;24.756;2023-11-19T06:17:24;86394.53;;;-144.30;64.47
7180;BME280;3631;42.152;24.756;2023-11-19T06:19:51;86360.72;;;-144.30;64.27
7180;BME280;3631;42.152;24.756;2023-11-19T06:22:18;86378.63;;;-144.30;63.93
7180;BME280;3631;42.152;24.756;2023-11-19T06:24:45;86394.53;;;-144.30;64.01
7180;BME280;3631;42.152;24.756;2023-11-19T06:27:11;86291.13;;;-144.30;63.72
7180;BME280;3631;42.152;24.756;2023-11-19T06:29:40;86370.66;;;-144.30;63.63
7180;BME280;3631;42.152;24.756;2023-11-19T06:32:07;86346.81;;;-144.30;69.48
7180;BME280;3631;42.152;24.756;2023-11-19T06:34:34;86307.03;;;-144.30;64.40
7180;BME280;3631;42.152;24.756;2023-11-19T06:37:01;86322.94;;;-144.30;63.53
7180;BME280;3631;42.152;24.756;2023-11-19T06:39:29;86358.72;;;-144.30;62.88
7180;BME280;3631;42.152;24.756;2023-11-19T06:41:56;86328.91;;;-144.30;62.41
7180;BME280;3631;42.152;24.756;2023-11-19T06:44:23;86316.97;;;-144.30;62.50
7180;BME280;3631;42.152;24.756;2023-11-19T06:46:52;86328.91;;;-144.30;62.37
7180;BME280;3631;42.152;24.756;2023-11-19T06:49:19;86344.81;;;-144.30;62.51
7180;BME280;3631;42.152;24.756;2023-11-19T06:51:46;86318.97;;;-144.30;61.86
7180;BME280;3631;42.152;24.756;2023-11-19T06:54:13;86346.81;;;-144.30;61.95
7180;BME280;3631;42.152;24.756;2023-11-19T06:56:39;86326.91;;;-144.30;61.99
7180;BME280;3631;42.152;24.756;2023-11-19T06:59:07;86322.94;;;-144.30;61.79
7180;BME280;3631;42.152;24.756;2023-11-19T07:01:35;86287.16;;;-144.30;61.92
7180;BME280;3631;42.152;24.756;2023-11-19T07:04:04;86320.94;;;-144.30;61.94
7180;BME280;3631;42.152;24.756;2023-11-19T07:06:35;86309.03;;;-144.30;61.70
7180;BME280;3631;42.152;24.756;2023-11-19T07:09:03;86316.97;;;-144.30;61.40
7180;BME280;3631;42.152;24.756;2023-11-19T07:11:35;86259.31;;;-144.30;61.96
7180;BME280;3631;42.152;24.756;2023-11-19T07:14:04;86267.25;;;-144.30;61.29
7180;BME280;3631;42.152;24.756;2023-11-19T07:16:32;86259.31;;;-144.30;60.89
7180;BME280;3631;42.152;24.756;2023-11-19T07:19:00;86277.19;;;-144.30;61.73
7180;BME280;3631;42.152;24.756;2023-11-19T07:21:28;86358.72;;;-144.30;61.82
7180;BME280;3631;42.152;24.756;2023-11-19T07:23:55;86301.06;;;-144.30;60.32
7180;BME280;3631;42.152;24.756;2023-11-19T07:26:26;86287.16;;;-144.30;60.85
7180;BME280;3631;42.152;24.756;2023-11-19T07:28:53;86295.09;;;-144.30;60.90
7180;BME280;3631;42.152;24.756;2023-11-19T07:31:21;86289.13;;;-144.30;60.53
7180;BME280;3631;42.152;24.756;2023-11-19T07:33:49;86155.91;;;-144.30;60.48
7180;BME280;3631;42.152;24.756;2023-11-19T07:36:16;86229.47;;;-144.30;60.40
7180;BME280;3631;42.152;24.756;2023-11-19T07:38:45;86322.94;;;-144.30;59.58
7180;BME280;3631;42.152;24.756;2023-11-19T07:41:12;86255.34;;;-144.30;59.04
7180;BME280;3631;42.152;24.756;2023-11-19T07:43:39;86251.34;;;-144.30;58.84
7180;BME280;3631;42.152;24.756;2023-11-19T07:46:10;86223.50;;;-144.30;58.81
7180;BME280;3631;42.152;24.756;2023-11-19T07:48:38;86316.97;;;-144.30;58.34
7180;BME280;3631;42.152;24.756;2023-11-19T07:51:05;86163.88;;;-144.30;58.13
7180;BME280;3631;42.152;24.756;2023-11-19T07:53:32;86247.38;;;-144.30;58.73
7180;BME280;3631;42.152;24.756;2023-11-19T07:56:01;86249.38;;;-144.30;58.11
7180;BME280;3631;42.152;24.756;2023-11-19T07:58:28;86263.28;;;-144.30;58.47
7180;BME280;3631;42.152;24.756;2023-11-19T08:00:55;86249.38;;;-144.30;58.50
7180;BME280;3631;42.152;24.756;2023-11-19T08:03:22;86229.47;;;-144.30;58.61
7180;BME280;3631;42.152;24.756;2023-11-19T08:05:49;86229.47;;;-144.30;58.08
7180;BME280;3631;42.152;24.756;2023-11-19T08:08:16;86255.34;;;-144.30;57.84
7180;BME280;3631;42.152;24.756;2023-11-19T08:10:43;86227.50;;;-144.30;57.53
7180;BME280;3631;42.152;24.756;2023-11-19T08:13:12;86147.97;;;-144.30;57.80
7180;BME280;3631;42.152;24.756;2023-11-19T08:15:39;86223.50;;;-144.30;57.68
7180;BME280;3631;42.152;24.756;2023-11-19T08:18:06;86149.94;;;-144.30;57.69
7180;BME280;3631;42.152;24.756;2023-11-19T08:20:34;86153.91;;;-144.30;57.45
7180;BME280;3631;42.152;24.756;2023-11-19T08:23:04;86219.53;;;-144.30;57.43
7180;BME280;3631;42.152;24.756;2023-11-19T08:25:31;86245.38;;;-144.30;57.63
7180;BME280;3631;42.152;24.756;2023-11-19T08:27:59;86251.34;;;-144.30;57.68
7180;BME280;3631;42.152;24.756;2023-11-19T08:30:27;86247.38;;;-144.30;57.19
7180;BME280;3631;42.152;24.756;2023-11-19T08:32:54;86203.63;;;-144.30;57.06
7180;BME280;3631;42.152;24.756;2023-11-19T08:35:21;86724.63;;;-144.30;57.20
7180;BME280;3631;42.152;24.756;2023-11-19T08:37:49;86235.44;;;-144.30;57.34
7180;BME280;3631;42.152;24.756;2023-11-19T08:40:17;86211.59;;;-144.30;57.48
7180;BME280;3631;42.152;24.756;2023-11-19T08:42:45;86149.94;;;-144.30;56.67
7180;BME280;3631;42.152;24.756;2023-11-19T08:45:12;86191.69;;;-144.30;56.84
7180;BME280;3631;42.152;24.756;2023-11-19T08:47:41;86241.41;;;-144.30;57.24
7180;BME280;3631;42.152;24.756;2023-11-19T08:50:08;86235.44;;;-144.30;57.42
7180;BME280;3631;42.152;24.756;2023-11-19T08:52:35;86193.69;;;-144.30;57.00
7180;BME280;3631;42.152;24.756;2023-11-19T08:55:03;86229.47;;;-144.30;56.83
7180;BME280;3631;42.152;24.756;2023-11-19T08:57:31;86175.78;;;-144.30;57.07
7180;BME280;3631;42.152;24.756;2023-11-19T08:59:59;86247.38;;;-144.30;56.73
7180;BME280;3631;42.152;24.756;2023-11-19T09:02:26;86211.59;;;-144.30;56.46
7180;BME280;3631;42.152;24.756;2023-11-19T09:04:54;86217.56;;;-144.30;56.37
7180;BME280;3631;42.152;24.756;2023-11-19T09:07:21;86211.59;;;-144.30;56.32
7180;BME280;3631;42.152;24.756;2023-11-19T09:09:48;86233.47;;;-144.30;56.05
7180;BME280;3631;42.152;24.756;2023-11-19T09:12:15;86247.38;;;-144.30;55.88
7180;BME280;3631;42.152;24.756;2023-11-19T09:14:42;86183.75;;;-144.30;56.30
7180;BME280;3631;42.152;24.756;2023-11-19T09:17:09;86207.59;;;-144.30;56.48
7180;BME280;3631;42.152;24.756;2023-11-19T09:19:36;86205.63;;;-144.30;57.14
7180;BME280;3631;42.152;24.756;2023-11-19T09:22:05;86205.63;;;-144.30;55.44
7180;BME280;3631;42.152;24.756;2023-11-19T09:24:32;86231.47;;;-144.30;55.95
7180;BME280;3631;42.152;24.756;2023-11-19T09:26:59;86211.59;;;-144.30;55.40
7180;BME280;3631;42.152;24.756;2023-11-19T09:29:26;86497.94;;;-144.30;55.27
7180;BME280;3631;42.152;24.756;2023-11-19T09:31:52;86096.25;;;-144.30;54.84
7180;BME280;3631;42.152;24.756;2023-11-19T09:34:21;86209.59;;;-144.30;55.05
7180;BME280;3631;42.152;24.756;2023-11-19T09:36:48;86155.91;;;-144.30;55.25
7180;BME280;3631;42.152;24.756;2023-11-19T09:39:16;86199.66;;;-144.30;54.89
7180;BME280;3631;42.152;24.756;2023-11-19T09:41:44;86171.81;;;-144.30;54.80
7180;BME280;3631;42.152;24.756;2023-11-19T09:44:11;86092.28;;;-144.30;54.62
7180;BME280;3631;42.152;24.756;2023-11-19T09:46:40;86195.69;;;-144.30;54.88
7180;BME280;3631;42.152;24.756;2023-11-19T09:49:08;86219.53;;;-144.30;54.89
7180;BME280;3631;42.152;24.756;2023-11-19T09:51:38;86217.56;;;-144.30;54.71
7180;BME280;3631;42.152;24.756;2023-11-19T09:54:05;86143.97;;;-144.30;55.96
7180;BME280;3631;42.152;24.756;2023-11-19T09:56:36;86138.00;;;-144.30;54.86
7180;BME280;3631;42.152;24.756;2023-11-19T09:59:05;86647.06;;;-144.30;54.84
7180;BME280;3631;42.152;24.756;2023-11-19T10:01:32;86183.75;;;-144.30;54.26
7180;BME280;3631;42.152;24.756;2023-11-19T10:04:01;86177.78;;;-144.30;53.87
7180;BME280;3631;42.152;24.756;2023-11-19T10:06:28;86175.78;;;-144.30;54.66
7180;BME280;3631;42.152;24.756;2023-11-19T10:08:55;86181.75;;;-144.30;53.94
7180;BME280;3631;42.152;24.756;2023-11-19T10:11:22;86181.75;;;-144.30;54.22
7180;BME280;3631;42.152;24.756;2023-11-19T10:13:51;86136.03;;;-144.30;53.94
7180;BME280;3631;42.152;24.756;2023-11-19T10:16:19;86143.97;;;-144.30;54.25
7180;BME280;3631;42.152;24.756;2023-11-19T10:18:46;86169.81;;;-144.30;54.85
7180;BME280;3631;42.152;24.756;2023-11-19T10:21:17;86147.97;;;-144.30;54.33
7180;BME280;3631;42.152;24.756;2023-11-19T10:23:48;86187.72;;;-144.30;54.34
7180;BME280;3631;42.152;24.756;2023-11-19T10:26:17;86056.50;;;-144.30;54.47
7180;BME280;3631;42.152;24.756;2023-11-19T10:28:45;86122.09;;;-144.30;53.85
7180;BME280;3631;42.152;24.756;2023-11-19T10:31:15;86161.88;;;-144.30;54.45
7180;BME280;3631;42.152;24.756;2023-11-19T10:33:42;86138.00;;;-144.30;54.17
7180;BME280;3631;42.152;24.756;2023-11-19T10:36:10;86171.81;;;-144.30;54.07
7180;BME280;3631;42.152;24.756;2023-11-19T10:38:38;86575.47;;;-144.30;53.79
7180;BME280;3631;42.152;24.756;2023-11-19T10:41:06;86151.94;;;-144.30;54.28
7180;BME280;3631;42.152;24.756;2023-11-19T10:43:43;86151.94;;;-144.30;54.10
7180;BME280;3631;42.152;24.756;2023-11-19T10:46:12;85907.38;;;-144.30;53.99
7180;BME280;3631;42.152;24.756;2023-11-19T10:48:40;86092.28;;;-144.30;54.16
7180;BME280;3631;42.152;24.756;2023-11-19T10:51:07;86191.69;;;-144.30;54.11
7180;BME280;3631;42.152;24.756;2023-11-19T10:53:37;86134.03;;;-144.30;53.94
7180;BME280;3631;42.152;24.756;2023-11-19T10:56:10;86161.88;;;-144.30;53.92
7180;BME280;3631;42.152;24.756;2023-11-19T10:58:37;86076.38;;;-144.30;53.37
7180;BME280;3631;42.152;24.756;2023-11-19T11:01:13;86466.09;;;-144.30;53.78
7180;BME280;3631;42.152;24.756;2023-11-19T11:03:45;86140.00;;;-144.30;53.26
7180;BME280;3631;42.152;24.756;2023-11-19T11:06:13;86599.34;;;-144.30;53.45
7180;BME280;3631;42.152;24.756;2023-11-19T11:08:40;86112.16;;;-144.30;53.09
7180;BME280;3631;42.152;24.756;2023-11-19T11:11:07;86155.91;;;-144.30;53.12
7180;BME280;3631;42.152;24.756;2023-11-19T11:13:37;86173.81;;;-144.30;53.10
7180;BME280;3631;42.152;24.756;2023-11-19T11:16:08;86142.00;;;-144.30;53.10
7180;BME280;3631;42.152;24.756;2023-11-19T11:18:36;86094.28;;;-144.30;53.63
7180;BME280;3631;42.152;24.756;2023-11-19T11:21:09;86112.16;;;-144.30;53.39
7180;BME280;3631;42.152;24.756;2023-11-19T11:23:50;86096.25;;;-144.30;53.27
7180;BME280;3631;42.152;24.756;2023-11-19T11:29:31;86090.28;;;-144.30;53.22
7180;BME280;3631;42.152;24.756;2023-11-19T11:32:08;86128.06;;;-144.30;52.90
7180;BME280;3631;42.152;24.756;2023-11-19T11:34:58;86142.00;;;-144.30;53.01
7180;BME280;3631;42.152;24.756;2023-11-19T11:37:35;86136.03;;;-144.30;52.63
7180;BME280;3631;42.152;24.756;2023-11-19T11:40:05;86066.44;;;-144.30;53.00
7180;BME280;3631;42.152;24.756;2023-11-19T11:42:36;86124.09;;;-144.30;52.70
7180;BME280;3631;42.152;24.756;2023-11-19T11:45:05;86132.06;;;-144.30;52.51
7180;BME280;3631;42.152;24.756;2023-11-19T11:48:11;86126.09;;;-144.30;53.10
7180;BME280;3631;42.152;24.756;2023-11-19T11:50:49;86100.25;;;-144.30;52.99
7180;BME280;3631;42.152;24.756;2023-11-19T11:53:19;86102.22;;;-144.30;52.91
7180;BME280;3631;42.152;24.756;2023-11-19T11:55:56;86106.19;;;-144.30;52.71
7180;BME280;3631;42.152;24.756;2023-11-19T11:58:32;86104.22;;;-144.30;52.77
7180;BME280;3631;42.152;24.756;2023-11-19T12:01:04;86124.09;;;-144.30;52.94
7180;BME280;3631;42.152;24.756;2023-11-19T12:03:32;86143.97;;;-144.30;53.02
7180;BME280;3631;42.152;24.756;2023-11-19T12:05:59;86088.31;;;-144.30;52.85
7180;BME280;3631;42.152;24.756;2023-11-19T12:08:29;86147.97;;;-144.30;51.93
7180;BME280;3631;42.152;24.756;2023-11-19T12:10:58;86120.13;;;-144.30;51.72
7180;BME280;3631;42.152;24.756;2023-11-19T12:16:13;86092.28;;;-144.30;52.22
7180;BME280;3631;42.152;24.756;2023-11-19T12:18:40;86104.22;;;-144.30;52.08
7180;BME280;3631;42.152;24.756;2023-11-19T12:21:10;86132.06;;;-144.30;52.27
7180;BME280;3631;42.152;24.756;2023-11-19T12:23:45;86140.00;;;-144.30;52.38
7180;BME280;3631;42.152;24.756;2023-11-19T12:26:31;86128.06;;;-144.30;52.63
7180;BME280;3631;42.152;24.756;2023-11-19T12:28:58;86016.72;;;-144.30;53.19
7180;BME280;3631;42.152;24.756;2023-11-19T12:31:25;86143.97;;;-144.30;52.89
7180;BME280;3631;42.152;24.756;2023-11-19T12:33:53;86108.19;;;-144.30;53.00
7180;BME280;3631;42.152;24.756;2023-11-19T12:36:20;86104.22;;;-144.30;52.75
7180;BME280;3631;42.152;24.756;2023-11-19T12:38:49;86112.16;;;-144.30;52.97
7180;BME280;3631;42.152;24.756;2023-11-19T12:41:16;86036.59;;;-144.30;52.72
7180;BME280;3631;42.152;24.756;2023-11-19T12:43:46;86124.09;;;-144.30;52.43
7180;BME280;3631;42.152;24.756;2023-11-19T12:46:20;86120.13;;;-144.30;52.88
7180;BME280;3631;42.152;24.756;2023-11-19T12:48:47;86126.09;;;-144.30;52.84
7180;BME280;3631;42.152;24.756;2023-11-19T12:51:14;86112.16;;;-144.30;53.00
7180;BME280;3631;42.152;24.756;2023-11-19T12:53:49;86018.72;;;-144.30;52.83
7180;BME280;3631;42.152;24.756;2023-11-19T12:56:20;86134.03;;;-144.30;52.96
7180;BME280;3631;42.152;24.756;2023-11-19T12:58:47;86183.75;;;-144.30;53.12
7180;BME280;3631;42.152;24.756;2023-11-19T13:01:16;86104.22;;;-144.30;53.04